sensor_id;sensor_type;location;lat;lon;timestamp;P1;durP1;ratioP1;P2;durP2;ratioP2
64242;SDS011;50573;51.512;5.386;2023-05-10T00:08:10;56.88;;;29.38;;
64242;SDS011;50573;51.512;5.386;2023-05-10T00:18:13;66.73;;;32.23;;
64242;SDS011;50573;51.512;5.386;2023-05-10T00:28:17;73.97;;;33.67;;
64242;SDS011;50573;51.512;5.386;2023-05-10T00:38:20;84.28;;;38.13;;
64242;SDS011;50573;51.512;5.386;2023-05-10T00:48:25;103.90;;;41.95;;
64242;SDS011;50573;51.512;5.386;2023-05-10T00:58:28;111.10;;;44.58;;
64242;SDS011;50573;51.512;5.386;2023-05-10T01:08:33;128.07;;;50.83;;
64242;SDS011;50573;51.512;5.386;2023-05-10T01:18:37;139.18;;;56.10;;
64242;SDS011;50573;51.512;5.386;2023-05-10T01:28:50;155.10;;;61.40;;
64242;SDS011;50573;51.512;5.386;2023-05-10T01:39:20;179.60;;;63.53;;
64242;SDS011;50573;51.512;5.386;2023-05-10T01:49:29;172.75;;;63.60;;
64242;SDS011;50573;51.512;5.386;2023-05-10T01:59:37;196.57;;;68.25;;
64242;SDS011;50573;51.512;5.386;2023-05-10T02:09:43;140.25;;;61.20;;
64242;SDS011;50573;51.512;5.386;2023-05-10T02:19:50;148.52;;;68.10;;
64242;SDS011;50573;51.512;5.386;2023-05-10T02:29:54;166.27;;;75.43;;
64242;SDS011;50573;51.512;5.386;2023-05-10T02:40:00;196.93;;;83.30;;
64242;SDS011;50573;51.512;5.386;2023-05-10T02:50:06;165.13;;;78.45;;
64242;SDS011;50573;51.512;5.386;2023-05-10T03:00:11;158.50;;;75.85;;
64242;SDS011;50573;51.512;5.386;2023-05-10T03:10:15;188.35;;;76.60;;
64242;SDS011;50573;51.512;5.386;2023-05-10T03:20:24;162.85;;;70.80;;
64242;SDS011;50573;51.512;5.386;2023-05-10T03:30:32;131.60;;;59.70;;
64242;SDS011;50573;51.512;5.386;2023-05-10T03:40:38;127.60;;;61.03;;
64242;SDS011;50573;51.512;5.386;2023-05-10T03:50:42;110.65;;;57.25;;
64242;SDS011;50573;51.512;5.386;2023-05-10T04:00:46;128.18;;;59.38;;
64242;SDS011;50573;51.512;5.386;2023-05-10T04:10:50;164.20;;;73.05;;
64242;SDS011;50573;51.512;5.386;2023-05-10T04:20:54;173.00;;;74.63;;
64242;SDS011;50573;51.512;5.386;2023-05-10T04:31:00;137.32;;;64.45;;
64242;SDS011;50573;51.512;5.386;2023-05-10T04:41:05;110.45;;;55.05;;
64242;SDS011;50573;51.512;5.386;2023-05-10T04:51:09;82.57;;;43.70;;
64242;SDS011;50573;51.512;5.386;2023-05-10T05:01:13;63.15;;;37.85;;
64242;SDS011;50573;51.512;5.386;2023-05-10T05:11:16;67.88;;;38.72;;
64242;SDS011;50573;51.512;5.386;2023-05-10T05:21:21;65.82;;;37.90;;
64242;SDS011;50573;51.512;5.386;2023-05-10T05:31:25;65.80;;;37.17;;
64242;SDS011;50573;51.512;5.386;2023-05-10T05:41:29;68.80;;;38.38;;
64242;SDS011;50573;51.512;5.386;2023-05-10T06:01:38;61.25;;;36.90;;
64242;SDS011;50573;51.512;5.386;2023-05-10T06:11:41;64.68;;;36.38;;
64242;SDS011;50573;51.512;5.386;2023-05-10T06:21:45;61.75;;;37.70;;
64242;SDS011;50573;51.512;5.386;2023-05-10T06:31:48;61.42;;;38.95;;
64242;SDS011;50573;51.512;5.386;2023-05-10T06:41:53;61.60;;;37.42;;
64242;SDS011;50573;51.512;5.386;2023-05-10T06:51:56;73.70;;;40.22;;
64242;SDS011;50573;51.512;5.386;2023-05-10T07:02:00;57.15;;;37.83;;
64242;SDS011;50573;51.512;5.386;2023-05-10T07:12:04;62.15;;;36.95;;
64242;SDS011;50573;51.512;5.386;2023-05-10T07:22:12;49.90;;;33.08;;
64242;SDS011;50573;51.512;5.386;2023-05-10T07:32:15;51.58;;;28.27;;
64242;SDS011;50573;51.512;5.386;2023-05-10T07:42:19;36.83;;;23.33;;
64242;SDS011;50573;51.512;5.386;2023-05-10T07:52:22;31.27;;;21.05;;
64242;SDS011;50573;51.512;5.386;2023-05-10T08:02:28;24.63;;;17.27;;
64242;SDS011;50573;51.512;5.386;2023-05-10T08:22:36;23.63;;;15.00;;
64242;SDS011;50573;51.512;5.386;2023-05-10T08:32:39;23.02;;;12.60;;
64242;SDS011;50573;51.512;5.386;2023-05-10T08:42:45;14.57;;;10.00;;
64242;SDS011;50573;51.512;5.386;2023-05-10T08:52:57;10.10;;;7.55;;
64242;SDS011;50573;51.512;5.386;2023-05-10T09:03:04;11.35;;;8.02;;
64242;SDS011;50573;51.512;5.386;2023-05-10T09:13:08;10.63;;;6.80;;
64242;SDS011;50573;51.512;5.386;2023-05-10T09:23:14;10.50;;;6.38;;
64242;SDS011;50573;51.512;5.386;2023-05-10T09:33:17;11.45;;;7.45;;
64242;SDS011;50573;51.512;5.386;2023-05-10T09:43:22;11.43;;;7.07;;
64242;SDS011;50573;51.512;5.386;2023-05-10T09:53:25;9.05;;;6.32;;
64242;SDS011;50573;51.512;5.386;2023-05-10T10:03:29;8.18;;;5.20;;
64242;SDS011;50573;51.512;5.386;2023-05-10T10:13:32;8.98;;;5.07;;
64242;SDS011;50573;51.512;5.386;2023-05-10T10:23:37;8.07;;;6.65;;
64242;SDS011;50573;51.512;5.386;2023-05-10T10:33:43;19.95;;;7.28;;
64242;SDS011;50573;51.512;5.386;2023-05-10T10:54:36;11.55;;;7.85;;
64242;SDS011;50573;51.512;5.386;2023-05-10T11:04:44;13.02;;;8.18;;
64242;SDS011;50573;51.512;5.386;2023-05-10T11:14:49;12.02;;;8.82;;
64242;SDS011;50573;51.512;5.386;2023-05-10T11:24:57;13.95;;;9.68;;
64242;SDS011;50573;51.512;5.386;2023-05-10T11:35:05;10.45;;;7.10;;
64242;SDS011;50573;51.512;5.386;2023-05-10T11:45:11;12.32;;;8.50;;
64242;SDS011;50573;51.512;5.386;2023-05-10T11:55:17;17.48;;;10.63;;
64242;SDS011;50573;51.512;5.386;2023-05-10T12:05:22;19.65;;;16.58;;
64242;SDS011;50573;51.512;5.386;2023-05-10T12:15:25;21.95;;;19.65;;
64242;SDS011;50573;51.512;5.386;2023-05-10T12:25:31;11.03;;;9.17;;
64242;SDS011;50573;51.512;5.386;2023-05-10T12:35:43;13.43;;;11.70;;
64242;SDS011;50573;51.512;5.386;2023-05-10T12:45:48;16.38;;;14.57;;
64242;SDS011;50573;51.512;5.386;2023-05-10T12:55:51;23.25;;;18.25;;
64242;SDS011;50573;51.512;5.386;2023-05-10T13:05:56;30.88;;;23.38;;
64242;SDS011;50573;51.512;5.386;2023-05-10T13:15:59;37.45;;;26.55;;
64242;SDS011;50573;51.512;5.386;2023-05-10T13:26:03;28.90;;;25.02;;
64242;SDS011;50573;51.512;5.386;2023-05-10T13:36:06;29.05;;;24.58;;
64242;SDS011;50573;51.512;5.386;2023-05-10T13:46:11;29.75;;;23.92;;
64242;SDS011;50573;51.512;5.386;2023-05-10T13:56:14;30.92;;;24.15;;
64242;SDS011;50573;51.512;5.386;2023-05-10T14:06:18;38.47;;;24.13;;
64242;SDS011;50573;51.512;5.386;2023-05-10T14:16:21;30.73;;;22.95;;
64242;SDS011;50573;51.512;5.386;2023-05-10T14:26:26;33.97;;;24.63;;
64242;SDS011;50573;51.512;5.386;2023-05-10T14:36:29;40.65;;;26.67;;
64242;SDS011;50573;51.512;5.386;2023-05-10T14:46:34;32.93;;;20.83;;
64242;SDS011;50573;51.512;5.386;2023-05-10T15:06:42;45.50;;;30.92;;
64242;SDS011;50573;51.512;5.386;2023-05-10T15:16:45;25.50;;;19.02;;
64242;SDS011;50573;51.512;5.386;2023-05-10T15:26:49;28.42;;;18.52;;
64242;SDS011;50573;51.512;5.386;2023-05-10T15:36:52;30.23;;;19.23;;
64242;SDS011;50573;51.512;5.386;2023-05-10T15:46:58;24.30;;;16.83;;
64242;SDS011;50573;51.512;5.386;2023-05-10T15:57:01;33.47;;;22.00;;
64242;SDS011;50573;51.512;5.386;2023-05-10T16:07:08;29.88;;;19.80;;
64242;SDS011;50573;51.512;5.386;2023-05-10T16:17:11;31.23;;;18.40;;
64242;SDS011;50573;51.512;5.386;2023-05-10T16:27:17;27.43;;;18.00;;
64242;SDS011;50573;51.512;5.386;2023-05-10T16:37:20;26.52;;;16.23;;
64242;SDS011;50573;51.512;5.386;2023-05-10T16:47:24;23.83;;;16.38;;
64242;SDS011;50573;51.512;5.386;2023-05-10T16:57:27;28.75;;;15.98;;
64242;SDS011;50573;51.512;5.386;2023-05-10T17:07:32;19.02;;;14.18;;
64242;SDS011;50573;51.512;5.386;2023-05-10T17:17:35;22.27;;;15.95;;
64242;SDS011;50573;51.512;5.386;2023-05-10T17:27:39;26.17;;;17.70;;
64242;SDS011;50573;51.512;5.386;2023-05-10T17:37:43;24.95;;;17.58;;
64242;SDS011;50573;51.512;5.386;2023-05-10T17:47:47;32.47;;;20.27;;
64242;SDS011;50573;51.512;5.386;2023-05-10T17:57:50;37.72;;;22.75;;
64242;SDS011;50573;51.512;5.386;2023-05-10T18:07:55;24.88;;;18.40;;
64242;SDS011;50573;51.512;5.386;2023-05-10T18:18:00;31.70;;;20.80;;
64242;SDS011;50573;51.512;5.386;2023-05-10T18:28:04;43.53;;;27.30;;
64242;SDS011;50573;51.512;5.386;2023-05-10T18:38:09;26.88;;;18.13;;
64242;SDS011;50573;51.512;5.386;2023-05-10T18:48:14;30.93;;;21.57;;
64242;SDS011;50573;51.512;5.386;2023-05-10T18:58:17;36.47;;;21.85;;
64242;SDS011;50573;51.512;5.386;2023-05-10T19:08:22;32.97;;;22.50;;
64242;SDS011;50573;51.512;5.386;2023-05-10T19:18:25;40.63;;;24.15;;
64242;SDS011;50573;51.512;5.386;2023-05-10T19:28:30;34.50;;;23.65;;
64242;SDS011;50573;51.512;5.386;2023-05-10T19:38:35;42.85;;;27.65;;
64242;SDS011;50573;51.512;5.386;2023-05-10T19:48:40;33.77;;;23.07;;
64242;SDS011;50573;51.512;5.386;2023-05-10T19:58:43;26.30;;;19.70;;
64242;SDS011;50573;51.512;5.386;2023-05-10T20:08:47;34.75;;;23.35;;
64242;SDS011;50573;51.512;5.386;2023-05-10T20:18:51;46.80;;;26.65;;
64242;SDS011;50573;51.512;5.386;2023-05-10T20:28:56;42.08;;;26.65;;
64242;SDS011;50573;51.512;5.386;2023-05-10T20:38:59;32.90;;;23.97;;
64242;SDS011;50573;51.512;5.386;2023-05-10T20:49:03;60.10;;;32.00;;
64242;SDS011;50573;51.512;5.386;2023-05-10T20:59:06;50.05;;;30.02;;
64242;SDS011;50573;51.512;5.386;2023-05-10T21:09:11;41.83;;;26.55;;
64242;SDS011;50573;51.512;5.386;2023-05-10T21:19:14;47.07;;;28.17;;
64242;SDS011;50573;51.512;5.386;2023-05-10T21:29:19;59.95;;;32.38;;
64242;SDS011;50573;51.512;5.386;2023-05-10T21:39:21;33.17;;;19.83;;
64242;SDS011;50573;51.512;5.386;2023-05-10T21:49:26;48.55;;;28.67;;
64242;SDS011;50573;51.512;5.386;2023-05-10T21:59:29;51.77;;;30.17;;
64242;SDS011;50573;51.512;5.386;2023-05-10T22:09:33;67.13;;;34.72;;
64242;SDS011;50573;51.512;5.386;2023-05-10T22:19:36;57.47;;;31.73;;
64242;SDS011;50573;51.512;5.386;2023-05-10T22:29:40;52.10;;;30.83;;
64242;SDS011;50573;51.512;5.386;2023-05-10T22:39:43;51.65;;;32.72;;
64242;SDS011;50573;51.512;5.386;2023-05-10T22:49:48;53.47;;;33.92;;
64242;SDS011;50573;51.512;5.386;2023-05-10T22:59:51;70.67;;;36.57;;
64242;SDS011;50573;51.512;5.386;2023-05-10T23:09:55;54.85;;;33.53;;
64242;SDS011;50573;51.512;5.386;2023-05-10T23:19:59;79.38;;;40.35;;
64242;SDS011;50573;51.512;5.386;2023-05-10T23:30:03;71.53;;;37.13;;
64242;SDS011;50573;51.512;5.386;2023-05-10T23:40:07;53.78;;;33.80;;
64242;SDS011;50573;51.512;5.386;2023-05-10T23:50:12;51.27;;;27.93;;
